56NE weather

Noble Field
Ravenna, Nebraska, United States

Public forecast

Using degrees Fahrenheit for public forecast. Weather courtesy of forecast.io.

Closest aviation weather report (METAR) to Noble Field

Closest report is Kearney Regional Airport, 20.4 nm (37.7 km) SSW. Retrieved 2019/10/22 19:56 UTC (21 minutes ago):

KEAR 221956Z AUTO 30014G20KT 10SM SCT080 14/M04 A2995 RMK AO2 PK WND 29026/1919 SLP145 T01441039

Closest aviation forecast (TAF) to Noble Field

Closest forecast is Kearney Regional Airport, 20.4 nm (37.7 km) SSW. Retrieved 2019/10/22 18:22 UTC (2 hours ago):

TAF KEAR 221720Z 2218/2318 29016G24KT P6SM SCT070 SCT100 FM230100 21007KT P6SM SCT070 FM231000 26012KT P6SM SCT090 FM231500 31017G25KT P6SM SCT120